METAR Data
IDs: Format: Raw Decoded Include TAF

Data at: 1539 UTC 20 Jun 2019

METAR for:KJAQ (Jackson/Westover Fld, CA, US)
Text:KJAQ 201515Z AUTO 34004KT 10SM CLR 17/13 A2988 RMK AO1 T01680131
Temperature: 16.8°C ( 62°F)
Dewpoint: 13.1°C ( 56°F) [RH = 79%]
Pressure (altimeter):29.88 inches Hg (1011.9 mb)
Winds:from the NNW (340 degrees) at 5 MPH (4 knots; 2.1 m/s)
Visibility:10 or more sm (16+ km)
Ceiling:at least 12,000 feet AGL
Clouds:sky clear below 12,000 feet AGL
QC Flag:automated observation with no human augmentation
Text:KJAQ 201455Z AUTO 33008KT 10SM CLR 16/13 A2988 RMK AO1 T01640130
Temperature: 16.4°C ( 62°F)
Dewpoint: 13.0°C ( 55°F) [RH = 80%]
Pressure (altimeter):29.88 inches Hg (1011.9 mb)
Winds:from the NNW (330 degrees) at 9 MPH (8 knots; 4.1 m/s)
Visibility:10 or more sm (16+ km)
Ceiling:at least 12,000 feet AGL
Clouds:sky clear below 12,000 feet AGL
QC Flag:automated observation with no human augmentation